createdAt,value
2023-04-20T00:01:42.977Z,4.10
2023-04-20T00:04:09.783Z,5.00
2023-04-20T00:06:37.176Z,4.60
2023-04-20T00:09:04.237Z,5.00
2023-04-20T00:11:31.011Z,4.00
2023-04-20T00:13:58.170Z,4.70
2023-04-20T00:16:25.107Z,4.60
2023-04-20T00:18:51.879Z,4.00
2023-04-20T00:21:23.331Z,4.50
2023-04-20T00:23:50.661Z,4.80
2023-04-20T00:26:17.874Z,4.80
2023-04-20T00:28:45.389Z,4.00
2023-04-20T00:31:12.318Z,5.20
2023-04-20T00:33:39.148Z,4.60
2023-04-20T00:36:08.380Z,5.20
2023-04-20T00:38:36.504Z,4.70
2023-04-20T00:41:03.342Z,5.20
2023-04-20T00:43:32.071Z,5.10
2023-04-20T00:45:59.147Z,5.00
2023-04-20T00:48:26.066Z,5.90
2023-04-20T00:50:52.896Z,5.70
2023-04-20T00:53:19.794Z,4.60
2023-04-20T00:55:46.626Z,6.20
2023-04-20T00:58:13.666Z,4.80
2023-04-20T01:00:40.593Z,5.20
2023-04-20T01:03:08.219Z,3.80
2023-04-20T01:05:35.260Z,4.40
2023-04-20T01:08:02.558Z,4.50
2023-04-20T01:10:29.976Z,4.90
2023-04-20T01:12:57.890Z,7.00
2023-04-20T01:15:25.742Z,5.40
2023-04-20T01:17:53.151Z,5.00
2023-04-20T01:20:20.015Z,5.30
2023-04-20T01:22:50.814Z,6.10
2023-04-20T01:25:17.949Z,6.30
2023-04-20T01:27:47.941Z,5.60
2023-04-20T01:30:16.641Z,5.10
2023-04-20T01:32:43.842Z,6.00
2023-04-20T01:35:10.692Z,6.50
2023-04-20T01:37:38.690Z,5.10
2023-04-20T01:40:08.707Z,8.40
2023-04-20T01:42:37.066Z,6.90
2023-04-20T01:45:05.826Z,6.60
2023-04-20T01:47:33.631Z,4.50
2023-04-20T01:50:00.521Z,4.50
2023-04-20T01:52:27.553Z,5.80
2023-04-20T01:54:54.394Z,5.40
2023-04-20T01:57:21.430Z,6.10
2023-04-20T01:59:48.509Z,6.70
2023-04-20T02:02:15.426Z,6.60
2023-04-20T02:04:42.415Z,7.50
2023-04-20T02:07:09.502Z,9.30
2023-04-20T02:09:38.172Z,9.00
2023-04-20T02:12:05.274Z,9.30
2023-04-20T02:14:32.455Z,10.70
2023-04-20T02:17:00.632Z,11.60
2023-04-20T02:19:27.560Z,11.60
2023-04-20T02:21:54.644Z,15.50
2023-04-20T02:24:21.958Z,15.20
2023-04-20T02:26:48.926Z,14.20
2023-04-20T02:29:16.381Z,13.90
2023-04-20T02:31:43.949Z,13.60
2023-04-20T02:34:10.918Z,14.30
2023-04-20T02:36:38.262Z,17.60
2023-04-20T02:39:05.395Z,14.60
2023-04-20T02:41:34.508Z,16.10
2023-04-20T02:44:03.362Z,15.00
2023-04-20T02:46:31.767Z,17.60
2023-04-20T02:48:59.315Z,15.70
2023-04-20T02:51:26.470Z,16.00
2023-04-20T02:53:53.922Z,16.40
2023-04-20T02:56:30.697Z,15.50
2023-04-20T02:59:01.580Z,16.00
2023-04-20T03:02:07.933Z,14.20
2023-04-20T03:04:37.544Z,14.10
2023-04-20T03:07:14.006Z,14.90
2023-04-20T03:09:43.294Z,14.80
2023-04-20T03:12:22.632Z,13.90
2023-04-20T03:14:58.623Z,17.70
2023-04-20T03:17:36.362Z,15.10
2023-04-20T03:20:04.453Z,15.80
2023-04-20T03:22:31.750Z,14.30
2023-04-20T03:25:01.231Z,15.50
2023-04-20T03:27:47.729Z,16.00
2023-04-20T03:30:14.868Z,14.30
2023-04-20T03:32:42.473Z,15.10
2023-04-20T03:35:09.758Z,14.20
2023-04-20T03:37:37.811Z,16.00
2023-04-20T03:40:10.007Z,15.00
2023-04-20T03:42:37.578Z,14.60
2023-04-20T03:45:05.902Z,14.60
2023-04-20T03:47:33.395Z,13.10
2023-04-20T03:50:00.384Z,14.50
2023-04-20T03:52:28.357Z,13.30
2023-04-20T03:54:55.769Z,14.60
2023-04-20T03:57:22.655Z,13.60
2023-04-20T03:59:49.646Z,13.70
2023-04-20T04:02:18.849Z,13.80
2023-04-20T04:04:47.001Z,13.00
2023-04-20T04:07:14.615Z,13.80
2023-04-20T04:09:42.417Z,14.10
2023-04-20T04:12:09.490Z,14.00
2023-04-20T04:14:37.331Z,13.10
2023-04-20T04:17:04.568Z,14.00
2023-04-20T04:19:33.196Z,12.60
2023-04-20T04:22:00.446Z,13.40
2023-04-20T04:24:27.565Z,13.20
2023-04-20T04:27:05.858Z,14.90
2023-04-20T04:29:41.402Z,14.30
2023-04-20T04:32:39.379Z,14.90
2023-04-20T04:35:45.698Z,16.50
2023-04-20T04:38:23.780Z,16.80
2023-04-20T04:40:53.013Z,14.60
2023-04-20T04:43:19.956Z,16.00
2023-04-20T04:45:55.044Z,16.20
2023-04-20T04:48:22.661Z,15.10
2023-04-20T04:50:49.547Z,17.50
2023-04-20T04:53:16.903Z,16.00
2023-04-20T04:55:49.693Z,15.50
2023-04-20T04:58:16.533Z,15.60
2023-04-20T05:00:43.526Z,15.30
2023-04-20T05:03:10.735Z,13.40
2023-04-20T05:05:37.757Z,12.70
2023-04-20T05:08:05.124Z,11.60
2023-04-20T05:10:33.522Z,12.90
2023-04-20T05:13:00.460Z,10.50
2023-04-20T05:15:27.502Z,11.10
2023-04-20T05:17:54.556Z,9.70
2023-04-20T05:20:21.666Z,9.20
2023-04-20T05:22:48.857Z,9.30
2023-04-20T05:25:15.959Z,8.60
2023-04-20T05:27:43.124Z,9.30
2023-04-20T05:30:20.353Z,9.00
2023-04-20T05:32:52.628Z,8.80
2023-04-20T05:35:22.950Z,9.60
2023-04-20T05:37:51.378Z,9.50
2023-04-20T05:40:19.120Z,9.20
2023-04-20T05:42:48.764Z,10.60
2023-04-20T05:45:16.462Z,16.80
2023-04-20T05:47:52.938Z,11.70
2023-04-20T05:50:20.098Z,11.00
2023-04-20T05:55:48.539Z,10.10
2023-04-20T05:58:17.134Z,10.00
2023-04-20T06:02:16.932Z,11.00
2023-04-20T06:04:44.867Z,12.00
2023-04-20T06:07:12.413Z,11.20
2023-04-20T06:09:40.973Z,10.30
2023-04-20T06:12:09.545Z,22.30
2023-04-20T06:14:37.292Z,12.90
2023-04-20T06:17:06.648Z,16.10
2023-04-20T06:19:35.404Z,13.40
2023-04-20T06:22:08.538Z,14.50
2023-04-20T06:24:37.085Z,12.80
2023-04-20T06:27:08.246Z,13.70
2023-04-20T06:29:43.693Z,12.20
2023-04-20T06:32:12.438Z,13.40
2023-04-20T06:34:45.903Z,11.50
2023-04-20T06:37:24.538Z,11.80
2023-04-20T06:40:11.080Z,11.10
2023-04-20T06:42:39.067Z,10.50
2023-04-20T06:45:07.128Z,12.50
2023-04-20T06:47:35.131Z,8.80
2023-04-20T06:50:07.537Z,11.70
2023-04-20T06:52:37.860Z,9.00
2023-04-20T06:55:06.627Z,11.60
2023-04-20T06:57:33.721Z,11.00
2023-04-20T07:00:01.006Z,10.90
2023-04-20T07:02:28.302Z,8.50
2023-04-20T07:05:01.432Z,8.80
2023-04-20T07:07:28.678Z,9.80
2023-04-20T07:10:04.024Z,9.20
2023-04-20T07:12:31.897Z,9.30
2023-04-20T07:14:59.042Z,11.00
2023-04-20T07:17:29.314Z,10.60
2023-04-20T07:19:56.853Z,11.20
2023-04-20T07:22:24.865Z,12.30
2023-04-20T07:24:51.973Z,10.60
2023-04-20T07:27:19.732Z,11.10
2023-04-20T18:29:19.007Z,8.60
2023-04-20T18:32:28.089Z,8.10
2023-04-20T18:34:59.965Z,9.00
2023-04-20T18:37:28.111Z,8.70
2023-04-20T18:39:55.955Z,10.70
2023-04-20T18:42:23.195Z,10.80
2023-04-20T18:44:52.776Z,11.40
2023-04-20T18:47:39.740Z,12.10
2023-04-20T18:50:07.231Z,11.10
2023-04-20T18:52:35.763Z,11.00
2023-04-20T18:55:03.459Z,9.80
2023-04-20T18:57:33.417Z,9.00
2023-04-20T19:00:00.747Z,10.80
2023-04-20T19:02:28.762Z,10.10
2023-04-20T19:04:56.439Z,11.90
2023-04-20T19:07:23.385Z,10.50
2023-04-20T19:09:50.316Z,10.80
2023-04-20T19:12:17.285Z,12.60
2023-04-20T19:14:47.062Z,10.50
2023-04-20T19:17:17.536Z,11.70
2023-04-20T19:19:45.518Z,12.70
2023-04-20T19:22:12.375Z,14.50
2023-04-20T19:24:40.015Z,11.60
2023-04-20T19:27:08.580Z,12.20
2023-04-20T19:29:36.087Z,13.20
2023-04-20T19:32:03.122Z,15.50
2023-04-20T19:34:32.860Z,14.20
2023-04-20T19:37:00.045Z,13.70
2023-04-20T19:39:28.503Z,15.20
2023-04-20T19:41:55.648Z,15.00
2023-04-20T19:44:23.411Z,11.90
2023-04-20T19:46:50.906Z,11.70
2023-04-20T19:49:18.980Z,11.90
2023-04-20T19:51:47.238Z,12.50
2023-04-20T19:54:16.952Z,11.50
2023-04-20T19:56:44.537Z,10.60
2023-04-20T19:59:11.575Z,12.40
2023-04-20T20:01:38.551Z,10.80
2023-04-20T20:04:05.720Z,11.30
2023-04-20T20:06:32.939Z,11.30
2023-04-20T20:09:00.076Z,10.80
2023-04-20T20:11:27.974Z,10.60
2023-04-20T20:13:54.944Z,9.50
2023-04-20T20:16:21.949Z,9.40
2023-04-20T20:18:50.534Z,10.90
2023-04-20T20:21:17.583Z,9.60
2023-04-20T20:23:44.639Z,9.20
2023-04-20T20:26:11.754Z,9.90
2023-04-20T20:28:38.593Z,9.10
2023-04-20T20:31:05.562Z,9.10
2023-04-20T20:33:33.200Z,9.00
2023-04-20T20:36:01.040Z,8.10
2023-04-20T20:38:30.454Z,8.30
2023-04-20T20:40:58.211Z,9.90
2023-04-20T20:43:25.066Z,7.20
2023-04-20T20:45:51.960Z,8.90
2023-04-20T20:48:18.845Z,8.40
2023-04-20T20:50:45.873Z,8.50
2023-04-20T20:53:13.481Z,8.30
2023-04-20T20:55:40.561Z,8.20
2023-04-20T20:58:07.346Z,9.50
2023-04-20T21:00:35.229Z,8.20
2023-04-20T21:03:02.429Z,9.20
2023-04-20T21:05:29.372Z,8.40
2023-04-20T21:07:58.306Z,9.10
2023-04-20T21:10:25.284Z,7.20
2023-04-20T21:12:52.148Z,8.30
2023-04-20T21:15:20.900Z,7.70
2023-04-20T21:17:47.822Z,7.90
2023-04-20T21:20:14.892Z,6.60
2023-04-20T21:22:42.204Z,8.00
2023-04-20T21:25:09.294Z,7.60
2023-04-20T21:27:36.206Z,7.60
2023-04-20T21:30:31.907Z,7.20
2023-04-20T21:32:58.939Z,8.60
2023-04-20T21:35:26.003Z,6.90
2023-04-20T21:37:53.208Z,6.30
2023-04-20T21:40:21.392Z,9.20
2023-04-20T21:42:48.623Z,6.90
2023-04-20T21:45:15.548Z,7.50
2023-04-20T21:47:42.482Z,7.90
2023-04-20T21:50:10.029Z,7.50
2023-04-20T21:52:37.278Z,7.80
2023-04-20T21:55:04.496Z,8.40
2023-04-20T21:57:31.937Z,8.40
2023-04-20T21:59:58.733Z,6.80
2023-04-20T22:02:25.818Z,6.60
2023-04-20T22:04:53.276Z,5.80
2023-04-20T22:07:20.572Z,6.90
2023-04-20T22:09:47.908Z,7.60
2023-04-20T22:12:16.011Z,6.00
2023-04-20T22:14:44.024Z,7.20
2023-04-20T22:17:11.336Z,7.10
2023-04-20T22:19:38.275Z,6.30
2023-04-20T22:22:05.236Z,6.40
2023-04-20T22:24:32.856Z,6.20
2023-04-20T22:27:01.748Z,6.30
2023-04-20T22:29:28.804Z,7.50
2023-04-20T22:31:55.599Z,8.60
2023-04-20T22:34:25.419Z,7.90
2023-04-20T22:36:52.570Z,8.10
2023-04-20T22:39:19.759Z,9.30
2023-04-20T22:41:46.836Z,6.20
2023-04-20T22:44:13.729Z,7.50
2023-04-20T22:46:40.989Z,6.10
2023-04-20T22:49:08.531Z,5.30
2023-04-20T22:51:35.840Z,6.60
2023-04-20T22:54:03.826Z,5.80
2023-04-20T22:56:31.550Z,6.20
2023-04-20T22:58:58.389Z,7.70
2023-04-20T23:01:25.410Z,6.10
2023-04-20T23:03:52.410Z,6.00
2023-04-20T23:06:21.834Z,7.20
2023-04-20T23:08:48.851Z,7.20
2023-04-20T23:11:15.871Z,7.00
2023-04-20T23:13:42.756Z,5.80
2023-04-20T23:16:10.141Z,6.60
2023-04-20T23:18:37.198Z,6.30
2023-04-20T23:21:05.247Z,5.30
2023-04-20T23:23:32.410Z,7.40
2023-04-20T23:25:59.355Z,7.20
2023-04-20T23:28:26.437Z,6.40
2023-04-20T23:30:53.307Z,6.80
2023-04-20T23:33:20.712Z,6.70
2023-04-20T23:35:47.536Z,7.00
2023-04-20T23:38:14.769Z,7.30
2023-04-20T23:40:41.671Z,6.50
2023-04-20T23:43:08.541Z,7.00
2023-04-20T23:45:35.946Z,7.10
2023-04-20T23:48:02.910Z,8.00
2023-04-20T23:50:29.938Z,6.60
2023-04-20T23:52:57.096Z,8.00
2023-04-20T23:55:23.948Z,8.30
2023-04-20T23:57:52.357Z,7.20
